PADUPACD

Guest
Details From PADU - UNALASKA
To PACD - Cold Bay
Flight Number -
Tags generated
Created
Modified
Stats Distance 159 nm / 295 km
Max Altitude 17,000 ft / 5,182 m
Waypoints 4
Social Downloads 0
Likes 0
Share VATSIM

Download

Looking for another format? Having issues loading an existing format? Contact us
Advertisement - Login to hide

Notes

Basic altitude profile: - Ascent Rate: 2500ft/min - Ascent Speed: 250kts - Cruise Altitude: 35000ft - Cruise Speed: 420kts - Descent Rate: 1500ft/min - Descent Speed: 250kts Options: - Use NATs: yes - Use PACOTS: yes - Use low airways: yes - Use high airways: yes

Route

PADU DUT J115 CDB PACD

ID Type Via Altitude Latitude Longitude Leg Dist Tot Dist Heading (true) Name
O PADU APT - 0 ft / 0 m 53.89907˚ -166.54506˚ - 0 nm - UNALASKA
DUT NDB - 100 ft / 30 m 53.90514˚ -166.54786˚ 0 nm 0 nm 345° / 345° DUTCH HARBOR NDB
CDB DME J115 (AWY-HI) 17,000 ft / 5,182 m 55.26738˚ -162.77424˚ 154 nm 155 nm 57° / 60° COLD BAY VORTAC
O PACD APT - 0 ft / 0 m 55.20381˚ -162.72304˚ 4 nm 159 nm 155° / 155° Cold Bay

Altitude Profile

Advertisement - Login to hide

PADU

Details ICAO PADU (DUT)
Name UNALASKA
Region USA (Alaska)
Timezone America/Adak (UTC-10.0)
Stats Elevation 22 ft / 7 m (AMSL)
Location 53.899070° -166.545064°
Runways 1
Magnetic Variation 9.127° E

METAR

PADU 121556Z 34020G26KT 9SM SCT020 BKN027 OVC034 03/00 A2922 RMK AO2 PK WND 33032/1505 RAE20B36E49 SLP900 MH P0000 T00330000

Decode

TAF

PADU 121147Z 1212/1312 34020G30KT P6SM -SHRA SCT008 OVC015

Decode

Departure Runways

ID Width Length Bearing (true) Bearing (mag) Surface Threshold Offset Overrun Length
12 100 ft / 30 m 3,895 ft / 1,187 m 135.64° 126.51° Asphalt 100 ft / 30 m 0 ft / 0 m
30 100 ft / 30 m 3,895 ft / 1,187 m 315.65° 306.52° Asphalt 101 ft / 31 m 0 ft / 0 m

PACD

Details ICAO PACD (CDB)
Name Cold Bay
Region USA (Alaska)
Timezone America/Nome (UTC-9.0)
Stats Elevation 98 ft / 30 m (AMSL)
Location 55.203815° -162.723041°
Runways 2
Magnetic Variation 10.768° E

METAR

PACD 121553Z AUTO 27007KT 9SM BKN043 BKN085 01/01 A2905

Decode

TAF

PACD 121147Z 1212/1312 VRB05KT P6SM VCSH SCT025 BKN040 FM130000 32010KT 6SM -SHRA SCT015 BKN035

Decode

Destination Runways

ID Width Length Bearing (true) Bearing (mag) Surface Threshold Offset Overrun Length
08 151 ft / 46 m 4,222 ft / 1,287 m 94.77° 84.00° Asphalt 0 ft / 0 m 0 ft / 0 m
14 151 ft / 46 m 10,407 ft / 3,172 m 158.39° 147.62° Asphalt 0 ft / 0 m 0 ft / 0 m
26 151 ft / 46 m 4,222 ft / 1,287 m 274.79° 264.02° Asphalt 0 ft / 0 m 0 ft / 0 m
32 151 ft / 46 m 10,407 ft / 3,172 m 338.41° 327.64° Asphalt 0 ft / 0 m 0 ft / 0 m

Approach Navaids

Runway Type Ident Frequency Range Bearing (true) Bearing (mag) Slope Elevation
14 Localiser ICDB 110.30 MHz 18 nm / 33 km 158.42° 147.66° - 98 ft / 30 m (AMSL)
14 Glidescope ICDB 110.30 MHz 10 nm / 19 km 158.40° 147.63° 2.80° 69 ft / 21 m (AMSL)